Klamath Falls, OR

6:42 AM PDT on October 01, 2014 (GMT -0700)
Mount Shasta | Change Station
CLOSE
Current Station
Airport
Location: Mount Shasta,
Elevation: 3533 ft
Nearby Weather Stations

Elev 3533 ft 41.32 °N, 122.32 °W | Updated 46 minutes ago

Partly Cloudy
Partly Cloudy
43 °F
Feels Like 41 °F
N
4
Wind Variable Wind from Variable

Today
High -- | Low -- °F
--% Chance of Precip.
Yesterday
High -- | Low -- °F
Precip. -- in
7:04 AM 6:48 PM
Waxing Crescent, 47% visible
Pressure 30.19 in
Visibility 10.0 miles
Clouds Clear
Windchill 41 °F
Dew Point 38 °F
Humidity 82%
Rainfall 0.00 in
Snow Depth 0 in , 0 in , 0 in
UV 0 out of 12
Pollen 2.80 out of 12
Air Quality Not available.
Flu Activity Not available.
METAR KMHS 011256Z AUTO VRB03KT 10SM CLR 06/03 A3015 RMK AO2 SLP224 T00610033 $

More Conditions Fewer Conditions

Pressure 30.19 in
Visibility 10.0 miles
Clouds Clear
Windchill 41 °F
Dew Point 38 °F
Humidity 82%
Rainfall 0.00 in
Snow Depth 0 in , 0 in , 0 in
UV 0 out of 12
Pollen 2.80 out of 12
Air Quality Not available.
Flu Activity Not available.
METAR KMHS 011256Z AUTO VRB03KT 10SM CLR 06/03 A3015 RMK AO2 SLP224 T00610033 $

More Conditions Fewer Conditions

10-Day Weather Forecast

Almanac

Astronomy

Oct. 01, 2014 Rise Set
Actual Time 7:04 AM PDT 6:48 PM PDT
Civil Twilight 6:36 AM PDT 7:16 PM PDT
Nautical Twilight 6:03 AM PDT 7:48 PM PDT
Astronomical Twilight 5:30 AM PDT 8:21 PM PDT
Moon 2:14 PM PDT No Moon Set
Length of Visible Light 12h 40m
Length of Day
11h 44m
Tomorrow will be 2m 49s shorter.
Waxing Crescent, 47% of the Moon is Illuminated
Today
Waxing Crescent
Oct 1
First Quarter
Oct 8
Full
Oct 15
Last Quarter
Oct 23
New

Today's Extremes

State Highs State Lows

Community

WunderPhotos

Upload Photos

1,757,942 photos uploaded!

Nearby

Snow Depth

Station Depth Elevation
New Crescent Lake 0 in 4800 ft
Chemult Alternate 0 in 4760 ft
Fish Lake 0 in 4665 ft
Mt. Howard 0 in 7910 ft
Silver Creek 0 in 5720 ft

Earthquake Activity

City Distance Mag. Time & Date
No recent earthquake activity has been reported nearby.
Minimum magnitude displayed is 2.5.

Coastal Water Temperatures

Place Temperature
No Stations Reporting

Nearby Weather Stations